createdAt,value
2022-09-12T00:02:29.129Z,6.07
2022-09-12T00:05:00.018Z,5.53
2022-09-12T00:07:30.987Z,5.45
2022-09-12T00:10:01.549Z,5.90
2022-09-12T00:12:32.473Z,5.45
2022-09-12T00:15:03.350Z,6.20
2022-09-12T00:17:34.039Z,5.22
2022-09-12T00:20:05.279Z,5.73
2022-09-12T00:22:36.416Z,6.50
2022-09-12T00:25:08.457Z,6.70
2022-09-12T00:27:39.166Z,6.72
2022-09-12T00:30:10.341Z,6.20
2022-09-12T00:32:41.278Z,7.80
2022-09-12T00:35:11.985Z,7.82
2022-09-12T00:37:42.790Z,8.85
2022-09-12T00:40:14.050Z,8.90
2022-09-12T00:42:44.871Z,9.40
2022-09-12T00:45:29.547Z,8.02
2022-09-12T00:48:05.133Z,7.57
2022-09-12T00:50:36.509Z,6.93
2022-09-12T00:55:44.534Z,6.45
2022-09-12T00:58:22.898Z,6.18
2022-09-12T01:00:54.396Z,5.93
2022-09-12T01:03:27.760Z,5.68
2022-09-12T01:06:31.192Z,6.30
2022-09-12T01:09:06.421Z,6.22
2022-09-12T01:11:42.817Z,6.28
2022-09-12T01:14:13.853Z,6.30
2022-09-12T01:16:44.954Z,6.20
2022-09-12T01:19:45.875Z,5.93
2022-09-12T01:22:34.654Z,6.37
2022-09-12T01:25:33.160Z,5.57
2022-09-12T01:28:28.878Z,6.18
2022-09-12T01:31:25.147Z,5.20
2022-09-12T01:34:10.976Z,5.60
2022-09-12T01:36:53.684Z,5.97
2022-09-12T01:39:38.721Z,6.05
2022-09-12T01:42:44.991Z,6.35
2022-09-12T01:45:44.147Z,6.20
2022-09-12T01:48:25.698Z,6.63
2022-09-12T01:51:21.006Z,5.90
2022-09-12T01:54:00.013Z,6.60
2022-09-12T01:56:34.152Z,7.18
2022-09-12T01:59:14.074Z,6.40
2022-09-12T02:01:57.604Z,6.20
2022-09-12T02:05:16.641Z,6.95
2022-09-12T02:07:52.794Z,7.20
2022-09-12T02:10:32.883Z,6.35
2022-09-12T02:13:26.764Z,6.82
2022-09-12T02:16:04.857Z,6.43
2022-09-12T02:18:37.144Z,6.90
2022-09-12T02:21:09.957Z,5.80
2022-09-12T02:23:48.936Z,6.55
2022-09-12T02:26:45.341Z,6.95
2022-09-12T02:29:16.185Z,7.15
2022-09-12T02:31:54.695Z,6.13
2022-09-12T02:34:42.507Z,6.65
2022-09-12T02:37:48.935Z,7.30
2022-09-12T02:40:21.094Z,6.57
2022-09-12T02:42:53.237Z,7.13
2022-09-12T02:45:26.045Z,7.82
2022-09-12T02:48:00.918Z,8.05
2022-09-12T02:50:32.219Z,7.30
2022-09-12T02:53:07.567Z,8.10
2022-09-12T02:55:41.538Z,6.88
2022-09-12T02:58:18.701Z,7.57
2022-09-12T03:01:00.639Z,7.15
2022-09-12T03:04:15.166Z,8.00
2022-09-12T03:07:01.839Z,6.75
2022-09-12T03:09:50.937Z,8.02
2022-09-12T03:12:21.517Z,8.35
2022-09-12T03:14:57.798Z,8.77
2022-09-12T03:17:33.987Z,9.85
2022-09-12T03:20:19.730Z,10.30
2022-09-12T03:22:59.222Z,9.45
2022-09-12T03:25:41.198Z,8.40
2022-09-12T03:28:18.665Z,10.02
2022-09-12T03:30:51.549Z,10.70
2022-09-12T03:33:25.317Z,10.27
2022-09-12T03:35:57.939Z,9.82
2022-09-12T03:38:28.717Z,9.52
2022-09-12T03:40:59.558Z,9.75
2022-09-12T03:43:30.289Z,8.63
2022-09-12T03:46:01.405Z,9.90
2022-09-12T03:48:32.110Z,8.88
2022-09-12T03:51:08.282Z,9.63
2022-09-12T03:53:39.108Z,9.43
2022-09-12T03:56:14.881Z,9.63
2022-09-12T03:58:45.694Z,9.52
2022-09-12T04:01:19.305Z,9.70
2022-09-12T04:03:53.350Z,11.13
2022-09-12T04:06:25.694Z,10.68
2022-09-12T04:08:58.240Z,9.85
2022-09-12T04:11:29.058Z,8.52
2022-09-12T04:13:59.846Z,9.32
2022-09-12T04:16:30.896Z,10.23
2022-09-12T04:19:02.676Z,9.80
2022-09-12T04:21:34.091Z,9.60
2022-09-12T04:26:35.546Z,9.43
2022-09-12T04:29:06.339Z,10.30
2022-09-12T04:31:37.358Z,9.52
2022-09-12T04:34:08.372Z,10.48
2022-09-12T04:36:40.123Z,8.90
2022-09-12T04:39:11.273Z,9.63
2022-09-12T04:44:17.860Z,9.67
2022-09-12T04:46:50.677Z,10.32
2022-09-12T04:49:22.052Z,10.13
2022-09-12T04:51:56.189Z,10.10
2022-09-12T04:54:27.043Z,10.32
2022-09-12T04:56:57.870Z,9.50
2022-09-12T04:59:30.319Z,9.68
2022-09-12T05:02:01.497Z,9.98
2022-09-12T05:04:32.406Z,9.85
2022-09-12T05:07:03.306Z,10.45
2022-09-12T05:09:34.659Z,9.57
2022-09-12T05:12:06.258Z,10.32
2022-09-12T05:14:37.474Z,9.73
2022-09-12T05:17:08.694Z,9.65
2022-09-12T05:19:39.780Z,10.80
2022-09-12T05:22:10.516Z,10.02
2022-09-12T05:24:42.053Z,9.83
2022-09-12T05:27:13.175Z,10.48
2022-09-12T05:29:43.972Z,10.77
2022-09-12T05:32:15.360Z,10.43
2022-09-12T05:37:16.857Z,11.35
2022-09-12T05:39:48.787Z,10.68
2022-09-12T05:42:19.583Z,10.45
2022-09-12T05:44:50.337Z,11.17
2022-09-12T05:47:21.721Z,11.32
2022-09-12T05:52:24.795Z,11.02
2022-09-12T05:54:55.470Z,12.45
2022-09-12T05:57:26.397Z,12.00
2022-09-12T05:59:57.284Z,12.57
2022-09-12T06:02:28.234Z,13.02
2022-09-12T06:04:59.061Z,12.57
2022-09-12T06:07:29.928Z,12.10
2022-09-12T06:10:01.919Z,12.57
2022-09-12T06:12:33.064Z,13.02
2022-09-12T06:15:03.932Z,13.68
2022-09-12T06:17:35.192Z,13.10
2022-09-12T06:20:06.743Z,13.77
2022-09-12T06:22:37.528Z,13.63
2022-09-12T06:25:08.564Z,13.80
2022-09-12T06:27:39.325Z,13.88
2022-09-12T06:30:10.579Z,14.20
2022-09-12T06:35:13.098Z,13.85
2022-09-12T06:37:46.867Z,15.32
2022-09-12T06:40:17.823Z,15.45
2022-09-12T06:42:48.755Z,16.10
2022-09-12T06:45:35.270Z,15.27
2022-09-12T06:48:06.287Z,15.55
2022-09-12T06:50:37.180Z,16.23
2022-09-12T06:53:07.993Z,16.67
2022-09-12T06:55:38.974Z,17.92
2022-09-12T06:58:09.938Z,17.13
2022-09-12T07:00:41.364Z,16.92
2022-09-12T07:03:12.757Z,17.65
2022-09-12T07:08:13.975Z,18.95
2022-09-12T07:10:44.635Z,17.63
2022-09-12T07:13:16.589Z,16.97
2022-09-12T07:15:47.397Z,18.30
2022-09-12T07:18:18.270Z,19.02
2022-09-12T07:20:49.227Z,17.83
2022-09-12T07:23:20.086Z,18.38
2022-09-12T07:26:01.019Z,18.83
2022-09-12T07:28:34.350Z,19.58
2022-09-12T07:31:17.317Z,19.55
2022-09-12T07:33:52.372Z,18.92
2022-09-12T07:36:30.191Z,19.70
2022-09-12T07:39:01.744Z,19.00
2022-09-12T07:41:35.477Z,20.33
2022-09-12T07:44:09.414Z,18.98
2022-09-12T07:46:41.155Z,19.30
2022-09-12T07:49:12.101Z,19.70
2022-09-12T07:51:43.824Z,20.08
2022-09-12T07:54:14.687Z,19.73
2022-09-12T07:56:45.526Z,19.60
2022-09-12T07:59:25.510Z,19.88
2022-09-12T08:02:07.306Z,20.60
2022-09-12T08:04:39.164Z,20.67
2022-09-12T08:07:09.956Z,21.05
2022-09-12T08:09:40.902Z,20.17
2022-09-12T08:12:11.995Z,19.92
2022-09-12T08:17:13.601Z,20.92
2022-09-12T08:19:44.596Z,21.05
2022-09-12T08:22:16.439Z,21.98
2022-09-12T08:24:47.448Z,20.13
2022-09-12T08:27:19.019Z,21.27
2022-09-12T08:29:50.023Z,20.08
2022-09-12T08:32:20.806Z,20.70
2022-09-12T08:34:51.944Z,21.48
2022-09-12T08:37:22.823Z,20.77
2022-09-12T08:39:55.762Z,20.25
2022-09-12T08:42:57.671Z,20.95
2022-09-12T08:45:57.190Z,21.25
2022-09-12T08:48:28.155Z,20.80
2022-09-12T08:50:59.258Z,20.77
2022-09-12T08:53:33.193Z,20.88
2022-09-12T08:56:06.440Z,22.65
2022-09-12T08:58:42.367Z,28.08
2022-09-12T09:01:36.051Z,33.05
2022-09-12T09:04:40.255Z,34.72
2022-09-12T09:07:52.179Z,34.67
2022-09-12T09:10:41.348Z,36.95
2022-09-12T09:14:10.794Z,35.00
2022-09-12T09:16:51.490Z,31.48
2022-09-12T09:19:48.828Z,30.03
2022-09-12T09:22:38.359Z,26.77
2022-09-12T09:25:23.105Z,23.42
2022-09-12T09:28:10.133Z,24.20
2022-09-12T09:30:49.674Z,21.60
2022-09-12T09:33:31.069Z,21.40
2022-09-12T09:36:14.204Z,20.92
2022-09-12T09:38:54.223Z,20.52
2022-09-12T09:41:43.217Z,20.13
2022-09-12T09:44:14.415Z,19.75
2022-09-12T09:46:45.343Z,20.10
2022-09-12T09:49:19.013Z,18.95
2022-09-12T09:51:50.636Z,18.30
2022-09-12T09:54:29.410Z,16.88
2022-09-12T09:57:00.278Z,14.13
2022-09-12T09:59:34.041Z,14.45
2022-09-12T10:02:25.972Z,14.05
2022-09-12T10:05:01.524Z,15.07
2022-09-12T10:07:32.309Z,13.95
2022-09-12T10:10:19.154Z,14.30
2022-09-12T10:12:49.974Z,13.65
2022-09-12T10:15:28.853Z,13.48
2022-09-12T10:18:01.621Z,13.63
2022-09-12T10:20:36.683Z,12.48
2022-09-12T10:23:32.882Z,12.65
2022-09-12T10:26:07.887Z,12.20
2022-09-12T10:28:51.170Z,10.68
2022-09-12T10:31:32.793Z,10.18
2022-09-12T10:34:04.119Z,9.70
2022-09-12T10:39:21.405Z,8.75
2022-09-12T10:41:52.364Z,9.80
2022-09-12T10:44:33.390Z,8.68
2022-09-12T10:47:23.952Z,8.90
2022-09-12T10:49:54.946Z,7.75
2022-09-12T10:52:27.581Z,7.53
2022-09-12T10:54:58.586Z,7.88
2022-09-12T10:58:05.055Z,8.43
2022-09-12T11:00:42.631Z,8.02
2022-09-12T11:03:25.398Z,7.80
2022-09-12T11:06:03.246Z,7.93
2022-09-12T11:08:58.656Z,7.78
2022-09-12T11:11:44.569Z,7.47
2022-09-12T11:14:28.222Z,7.93
2022-09-12T11:16:59.020Z,8.13
2022-09-12T11:19:49.897Z,8.40
2022-09-12T11:22:31.857Z,11.70
2022-09-12T11:25:32.838Z,10.57
2022-09-12T11:28:29.049Z,9.68
2022-09-12T11:31:37.243Z,8.63
2022-09-12T11:34:19.296Z,9.05
2022-09-12T11:37:26.634Z,9.85
2022-09-12T11:40:03.015Z,9.52
2022-09-12T11:42:38.380Z,9.55
2022-09-12T11:45:38.894Z,8.73
2022-09-12T11:48:17.521Z,9.20
2022-09-12T11:50:48.372Z,9.35
2022-09-12T11:53:26.167Z,9.75
2022-09-12T11:56:21.238Z,10.25
2022-09-12T11:59:28.035Z,10.32
2022-09-12T12:02:05.406Z,9.98
2022-09-12T12:04:46.885Z,10.23
2022-09-12T12:07:18.021Z,10.02
2022-09-12T12:09:54.719Z,11.00
2022-09-12T13:45:56.868Z,15.45
2022-09-12T13:48:28.782Z,15.35
2022-09-12T13:51:03.540Z,15.82
2022-09-12T13:53:46.969Z,15.07
2022-09-12T13:56:22.733Z,14.98
2022-09-12T13:59:01.035Z,16.38
2022-09-12T14:01:49.514Z,16.63
2022-09-12T14:04:44.169Z,16.17
2022-09-12T14:07:23.044Z,15.85
2022-09-12T14:09:59.750Z,17.10
2022-09-12T14:12:42.903Z,15.23
2022-09-12T14:15:27.159Z,16.77
2022-09-12T14:18:04.110Z,14.88
2022-09-12T14:20:39.402Z,15.20
2022-09-12T14:23:24.137Z,15.77
2022-09-12T14:25:54.977Z,15.50
2022-09-12T14:28:27.228Z,15.93
2022-09-12T14:31:09.852Z,17.38
2022-09-12T14:33:58.635Z,17.67
2022-09-12T14:36:35.025Z,16.50
2022-09-12T14:39:20.575Z,16.52
2022-09-12T14:41:52.881Z,16.38
2022-09-12T14:44:27.968Z,17.58
2022-09-12T14:47:03.515Z,17.20
2022-09-12T14:49:37.845Z,16.02
2022-09-12T14:52:12.794Z,15.80
2022-09-12T14:54:45.568Z,14.00
2022-09-12T14:57:42.861Z,15.38
2022-09-12T15:00:16.897Z,15.10
2022-09-12T15:02:48.049Z,14.32
2022-09-12T15:05:24.939Z,16.02
2022-09-12T15:08:00.785Z,15.30
2022-09-12T15:10:40.730Z,16.60
2022-09-12T15:13:19.274Z,15.60
2022-09-12T15:15:53.343Z,15.48
2022-09-12T15:18:26.132Z,15.25
2022-09-12T15:21:08.671Z,14.38
2022-09-12T15:23:50.211Z,15.50
2022-09-12T15:26:24.973Z,15.07
2022-09-12T15:28:56.802Z,15.75
2022-09-12T15:31:33.384Z,14.27
2022-09-12T15:34:05.249Z,15.07
2022-09-12T15:36:36.138Z,15.00
2022-09-12T15:39:07.428Z,15.15
2022-09-12T15:41:40.732Z,15.30
2022-09-12T15:44:15.172Z,14.90
2022-09-12T15:46:46.184Z,15.00
2022-09-12T15:49:17.352Z,14.77
2022-09-12T15:51:48.074Z,15.57
2022-09-12T15:54:21.419Z,15.00
2022-09-12T15:56:53.018Z,15.13
2022-09-12T15:59:24.076Z,14.88
2022-09-12T16:01:55.017Z,14.65
2022-09-12T16:04:28.189Z,14.07
2022-09-12T16:06:59.926Z,14.88
2022-09-12T16:09:30.651Z,15.15
2022-09-12T16:12:01.504Z,15.80
2022-09-12T16:14:32.410Z,15.45
2022-09-12T16:17:03.206Z,15.35
2022-09-12T16:19:33.910Z,15.47
2022-09-12T16:22:04.883Z,15.80
2022-09-12T16:24:35.868Z,16.00
2022-09-12T16:27:07.229Z,16.23
2022-09-12T16:29:38.170Z,14.68
2022-09-12T16:32:09.449Z,15.40
2022-09-12T16:34:40.366Z,16.13
2022-09-12T16:37:11.242Z,15.63
2022-09-12T16:39:42.443Z,15.30
2022-09-12T16:42:13.468Z,15.70
2022-09-12T16:44:44.474Z,15.57
2022-09-12T16:47:15.785Z,15.40
2022-09-12T16:49:46.973Z,16.20
2022-09-12T16:52:19.447Z,15.57
2022-09-12T16:54:50.376Z,16.17
2022-09-12T16:57:21.005Z,16.43
2022-09-12T16:59:52.483Z,15.30
2022-09-12T17:02:23.453Z,16.90
2022-09-12T17:04:55.365Z,16.58
2022-09-12T17:07:26.625Z,16.58
2022-09-12T17:09:57.533Z,16.13
2022-09-12T17:12:28.716Z,16.33
2022-09-12T17:14:59.578Z,17.02
2022-09-12T17:17:30.608Z,17.33
2022-09-12T17:20:01.250Z,16.10
2022-09-12T17:22:32.234Z,16.30
2022-09-12T17:25:02.915Z,17.33
2022-09-12T17:27:33.885Z,16.63
2022-09-12T17:30:04.902Z,17.92
2022-09-12T17:32:35.661Z,18.17
2022-09-12T17:35:06.455Z,19.17
2022-09-12T17:37:38.833Z,18.52
2022-09-12T17:40:10.399Z,17.77
2022-09-12T17:42:41.737Z,18.33
2022-09-12T17:47:48.903Z,16.90
2022-09-12T17:50:31.682Z,17.07
2022-09-12T17:53:03.377Z,17.83
2022-09-12T17:55:35.083Z,16.98
2022-09-12T17:58:06.774Z,16.17
2022-09-12T18:00:56.437Z,17.27
2022-09-12T18:03:28.020Z,17.35
2022-09-12T18:05:59.805Z,16.73
2022-09-12T18:08:30.721Z,17.00
2022-09-12T18:11:08.330Z,15.57
2022-09-12T18:13:39.132Z,16.33
2022-09-12T18:16:12.503Z,15.90
2022-09-12T18:18:44.083Z,15.23
2022-09-12T18:21:15.478Z,15.13
2022-09-12T18:26:17.085Z,14.43
2022-09-12T18:28:48.004Z,13.65
2022-09-12T18:31:21.323Z,13.88
2022-09-12T18:33:52.540Z,13.10
2022-09-12T18:36:23.888Z,12.98
2022-09-12T18:38:54.663Z,12.52
2022-09-12T18:41:27.588Z,12.25
2022-09-12T18:44:03.087Z,11.98
2022-09-12T18:46:35.850Z,12.25
2022-09-12T18:49:07.400Z,11.80
2022-09-12T18:51:40.002Z,11.20
2022-09-12T18:54:15.864Z,11.63
2022-09-12T18:56:48.307Z,11.05
2022-09-12T18:59:19.330Z,10.57
2022-09-12T19:01:50.781Z,11.10
2022-09-12T19:06:52.238Z,10.60
2022-09-12T19:09:23.690Z,10.60
2022-09-12T19:14:28.613Z,10.40
2022-09-12T19:16:59.572Z,11.25
2022-09-12T19:19:30.430Z,10.45
2022-09-12T19:22:01.244Z,9.93
2022-09-12T19:24:31.908Z,9.68
2022-09-12T19:27:02.611Z,10.10
2022-09-12T19:29:33.402Z,10.50
2022-09-12T19:32:04.414Z,10.10
2022-09-12T19:34:35.273Z,9.75
2022-09-12T19:37:06.829Z,10.43
2022-09-12T19:39:37.555Z,10.10
2022-09-12T19:42:08.246Z,10.33
2022-09-12T19:44:38.932Z,10.77
2022-09-12T19:47:09.592Z,9.83
2022-09-12T19:49:40.333Z,10.80
2022-09-12T19:52:13.399Z,10.43
2022-09-12T19:54:46.437Z,10.40
2022-09-12T19:57:17.264Z,10.75
2022-09-12T19:59:48.918Z,10.10
2022-09-12T20:02:19.807Z,10.55
2022-09-12T20:04:50.616Z,10.35
2022-09-12T20:07:21.864Z,10.73
2022-09-12T20:09:52.836Z,9.95
2022-09-12T20:12:23.851Z,10.50
2022-09-12T20:14:54.558Z,10.35
2022-09-12T20:17:25.216Z,10.53
2022-09-12T20:19:55.922Z,10.60
2022-09-12T20:22:26.939Z,11.50
2022-09-12T20:24:57.620Z,10.50
2022-09-12T20:27:28.703Z,10.63
2022-09-12T20:30:00.939Z,10.23
2022-09-12T20:32:32.318Z,10.95
2022-09-12T20:35:03.069Z,10.80
2022-09-12T20:37:34.009Z,10.48
2022-09-12T20:40:05.564Z,10.63
2022-09-12T20:45:07.944Z,10.93
2022-09-12T20:47:38.785Z,10.95
2022-09-12T20:50:09.790Z,10.88
2022-09-12T20:52:40.554Z,11.38
2022-09-12T20:55:12.101Z,10.80
2022-09-12T21:00:14.041Z,10.30
2022-09-12T21:02:44.897Z,10.25
2022-09-12T21:05:15.801Z,10.63
2022-09-12T21:07:46.603Z,9.20
2022-09-12T21:10:17.673Z,11.00
2022-09-12T21:12:48.467Z,9.40
2022-09-12T21:15:19.279Z,9.87
2022-09-12T21:17:49.974Z,9.50
2022-09-12T21:20:20.941Z,9.73
2022-09-12T21:22:51.609Z,9.38
2022-09-12T21:25:22.376Z,9.60
2022-09-12T21:27:53.170Z,10.07
2022-09-12T21:30:24.074Z,9.52
2022-09-12T21:32:54.880Z,8.93
2022-09-12T21:35:25.583Z,9.00
2022-09-12T21:37:56.571Z,9.77
2022-09-12T21:40:27.319Z,9.27
2022-09-12T21:42:58.156Z,9.70
2022-09-12T21:45:29.072Z,9.10
2022-09-12T21:48:00.264Z,9.70
2022-09-12T21:50:31.172Z,9.05
2022-09-12T21:53:01.961Z,9.43
2022-09-12T21:55:32.961Z,8.93
2022-09-12T21:58:03.585Z,9.18
2022-09-12T22:00:34.710Z,9.57
2022-09-12T22:03:06.110Z,9.35
2022-09-12T22:05:39.306Z,9.75
2022-09-12T22:08:16.530Z,9.40
2022-09-12T22:10:47.635Z,9.63
2022-09-12T22:13:19.517Z,9.07
2022-09-12T22:15:59.716Z,9.30
2022-09-12T22:18:32.376Z,9.82
2022-09-12T22:21:08.193Z,10.60
2022-09-12T22:23:58.106Z,10.38
2022-09-12T22:26:32.856Z,10.18
2022-09-12T22:29:08.081Z,11.13
2022-09-12T22:31:40.448Z,13.45
2022-09-12T22:34:14.969Z,14.15
2022-09-12T22:36:47.163Z,13.32
2022-09-12T22:39:18.598Z,15.00
2022-09-12T22:41:49.876Z,13.35
2022-09-12T22:44:20.605Z,15.77
2022-09-12T22:46:52.643Z,16.10
2022-09-12T22:49:23.606Z,16.17
2022-09-12T22:51:56.102Z,15.23
2022-09-12T22:54:30.744Z,16.10
2022-09-12T22:57:01.917Z,15.25
2022-09-12T22:59:33.717Z,14.68
2022-09-12T23:02:07.464Z,15.07
2022-09-12T23:04:40.358Z,16.50
2022-09-12T23:07:12.166Z,14.50
2022-09-12T23:09:42.945Z,14.00
2022-09-12T23:12:18.221Z,13.87
2022-09-12T23:14:50.078Z,14.18
2022-09-12T23:17:20.863Z,13.30
2022-09-12T23:19:52.114Z,13.55
2022-09-12T23:22:23.112Z,12.90
2022-09-12T23:24:54.074Z,13.60
2022-09-12T23:27:25.886Z,13.27
2022-09-12T23:29:56.919Z,13.43
2022-09-12T23:32:28.506Z,14.30
2022-09-12T23:35:00.155Z,13.23
2022-09-12T23:37:32.259Z,14.27
2022-09-12T23:40:03.214Z,13.75
2022-09-12T23:42:34.112Z,14.30
2022-09-12T23:45:09.250Z,14.27
2022-09-12T23:47:45.564Z,15.45
2022-09-12T23:50:18.511Z,14.23
2022-09-12T23:52:49.606Z,14.80
2022-09-12T23:55:24.062Z,15.43
2022-09-12T23:57:55.831Z,14.93
